Time;durP1;ratioP1;P1;durP2;ratioP2;P2;SDS_P1;SDS_P2;PMS_P1;PMS_P2;Temp;Humidity;BMP_temperature;BMP_pressure;BME280_temperature;BME280_humidity;BME280_pressure;Samples;Min_cycle;Max_cycle;Signal;HPM_P1;HPM_P2
2022/11/18 00:02:09;;;;;;;8.73;5.32;;;7.00;99.90;;;;;;5072921;28;20044;-68
2022/11/18 00:04:34;;;;;;;7.75;5.70;;;7.00;99.90;;;;;;5072908;28;20483;-68
2022/11/18 00:07:00;;;;;;;7.63;5.00;;;7.00;99.90;;;;;;5038150;28;20438;-68
2022/11/18 00:09:26;;;;;;;10.85;6.20;;;7.00;99.90;;;;;;5055044;28;20063;-68
2022/11/18 00:14:35;;;;;;;12.73;6.07;;;6.90;99.90;;;;;;5072649;28;20128;-68
2022/11/18 00:17:03;;;;;;;11.30;6.25;;;7.00;99.90;;;;;;5072919;28;20067;-68
2022/11/18 00:19:32;;;;;;;9.57;6.28;;;7.00;99.90;;;;;;5072912;28;20476;-68
2022/11/18 00:21:58;;;;;;;8.73;5.82;;;7.20;99.90;;;;;;5072456;28;20049;-68
2022/11/18 00:24:24;;;;;;;9.73;6.28;;;7.00;99.90;;;;;;5073385;28;20045;-67
2022/11/18 00:26:50;;;;;;;7.50;6.03;;;7.00;99.90;;;;;;5058251;28;20040;-68
2022/11/18 00:29:17;;;;;;;11.80;5.93;;;7.20;99.90;;;;;;5076343;28;20097;-67
2022/11/18 00:31:43;;;;;;;9.40;6.05;;;7.00;99.90;;;;;;5076341;28;20043;-67
2022/11/18 00:34:12;;;;;;;9.73;6.43;;;7.20;99.90;;;;;;5076160;28;20044;-68
2022/11/18 00:36:38;;;;;;;9.00;5.63;;;7.00;99.90;;;;;;5076037;28;20040;-68
2022/11/18 00:39:04;;;;;;;10.18;5.93;;;7.20;99.90;;;;;;5076235;28;20028;-68
2022/11/18 00:42:50;;;;;;;10.05;6.38;;;6.90;99.90;;;;;;5076226;28;20475;-68
2022/11/18 00:44:16;;;;;;;10.15;6.85;;;7.00;99.90;;;;;;5075838;28;20055;-68
2022/11/18 00:46:42;;;;;;;11.63;6.93;;;7.50;99.90;;;;;;5075800;28;20044;-68
2022/11/18 00:49:08;;;;;;;12.45;7.38;;;6.90;99.90;;;;;;5076140;28;20039;-67
2022/11/18 00:51:34;;;;;;;10.77;6.55;;;6.90;99.90;;;;;;5058029;28;20049;-68
2022/11/18 00:54:01;;;;;;;9.82;6.50;;;6.90;99.90;;;;;;5058020;28;20036;-68
2022/11/18 00:56:26;;;;;;;13.85;6.72;;;7.00;99.90;;;;;;5075915;28;20040;-68
2022/11/18 00:58:52;;;;;;;9.80;5.55;;;7.30;99.90;;;;;;5075798;28;20433;-68
2022/11/18 01:01:18;;;;;;;13.88;6.47;;;6.90;99.90;;;;;;5075884;28;20436;-68
2022/11/18 01:03:44;;;;;;;10.10;6.07;;;6.90;99.90;;;;;;5075751;28;20033;-68
2022/11/18 01:06:09;;;;;;;11.00;5.72;;;6.90;99.90;;;;;;5057917;28;20037;-68
2022/11/18 01:08:35;;;;;;;10.75;6.70;;;6.90;99.90;;;;;;5057504;28;20047;-68
2022/11/18 01:13:18;;;;;;;10.52;6.00;;;6.90;99.90;;;;;;5075642;28;20040;-67
2022/11/18 01:13:51;;;;;;;14.30;8.02;;;7.00;99.90;;;;;;5075765;28;20045;-68
2022/11/18 01:16:22;;;;;;;10.52;5.85;;;6.90;99.90;;;;;;5075219;28;20094;-67
2022/11/18 01:18:48;;;;;;;8.95;5.35;;;7.00;99.90;;;;;;5075515;28;20047;-67
2022/11/18 01:21:14;;;;;;;11.02;5.72;;;7.40;99.90;;;;;;5075173;28;20133;-67
2022/11/18 01:23:39;;;;;;;11.48;7.65;;;6.90;99.90;;;;;;5075289;28;20087;-68
2022/11/18 01:26:09;;;;;;;9.85;7.15;;;6.90;99.90;;;;;;5075346;28;20032;-67
2022/11/18 01:28:35;;;;;;;11.93;6.47;;;7.00;99.90;;;;;;5057173;28;20115;-67
2022/11/18 01:31:10;;;;;;;8.02;5.95;;;6.90;99.90;;;;;;5057208;28;20041;-67
2022/11/18 01:33:36;;;;;;;11.20;6.43;;;7.00;99.90;;;;;;5057245;28;20052;-68
2022/11/18 01:36:01;;;;;;;10.73;5.72;;;6.80;99.90;;;;;;5056080;28;20036;-68
2022/11/18 01:38:27;;;;;;;15.80;7.57;;;6.90;99.90;;;;;;5075141;28;20503;-68
2022/11/18 01:40:54;;;;;;;11.65;6.03;;;7.10;99.90;;;;;;5056902;28;20048;-67
2022/11/18 01:43:21;;;;;;;7.82;5.90;;;6.90;99.90;;;;;;5040184;28;20049;-68
2022/11/18 01:45:52;;;;;;;11.00;6.15;;;6.90;99.90;;;;;;5074705;28;20036;-68
2022/11/18 01:48:21;;;;;;;13.20;7.82;;;7.00;99.90;;;;;;5057071;28;20041;-68
2022/11/18 01:50:53;;;;;;;14.30;7.70;;;6.90;99.90;;;;;;5074817;28;20044;-68
2022/11/18 01:53:27;;;;;;;11.43;6.28;;;6.90;99.90;;;;;;5074512;28;20051;-67
2022/11/18 01:55:56;;;;;;;10.95;6.32;;;6.90;99.90;;;;;;5074704;28;20048;-68
2022/11/18 01:58:46;;;;;;;12.63;7.55;;;6.90;99.90;;;;;;5074348;28;20077;-68
2022/11/18 02:01:12;;;;;;;9.73;6.18;;;7.00;99.90;;;;;;5056110;28;20135;-68
2022/11/18 02:03:39;;;;;;;11.95;6.38;;;6.90;99.90;;;;;;5056386;28;20123;-68
2022/11/18 02:06:07;;;;;;;11.02;6.63;;;7.00;99.90;;;;;;5056331;28;20052;-68
2022/11/18 02:08:36;;;;;;;11.48;7.05;;;6.90;99.90;;;;;;5074535;28;20086;-68
2022/11/18 02:11:03;;;;;;;12.32;6.65;;;7.30;99.90;;;;;;5074191;28;20044;-68
2022/11/18 02:13:31;;;;;;;19.45;7.15;;;6.90;99.90;;;;;;5074099;28;20178;-67
2022/11/18 02:16:22;;;;;;;12.00;7.20;;;7.10;99.90;;;;;;5056148;28;20173;-68
2022/11/18 02:18:59;;;;;;;10.23;6.47;;;6.80;99.90;;;;;;5074135;28;20055;-67
2022/11/18 02:21:49;;;;;;;13.63;7.70;;;6.90;99.90;;;;;;5073774;28;20056;-68
2022/11/18 02:24:46;;;;;;;8.35;6.10;;;6.80;99.90;;;;;;5055976;28;20056;-68
2022/11/18 02:27:48;;;;;;;13.30;7.50;;;6.90;99.90;;;;;;5074122;28;20068;-67
2022/11/18 02:30:16;;;;;;;11.85;6.65;;;6.90;99.90;;;;;;5074044;28;20036;-67
2022/11/18 02:32:51;;;;;;;12.38;6.13;;;6.90;99.90;;;;;;5055915;28;20107;-68
2022/11/18 02:35:29;;;;;;;12.07;7.32;;;6.90;99.90;;;;;;5074030;28;20043;-68
2022/11/18 02:38:03;;;;;;;9.70;6.55;;;6.80;99.90;;;;;;5073961;28;20395;-68
2022/11/18 02:40:42;;;;;;;10.00;6.30;;;6.90;99.90;;;;;;5039139;28;20036;-67
2022/11/18 02:43:15;;;;;;;12.13;7.40;;;6.80;99.90;;;;;;5073866;28;20044;-67
2022/11/18 02:45:45;;;;;;;10.60;6.15;;;6.80;99.90;;;;;;5055669;28;20075;-67
2022/11/18 02:48:13;;;;;;;12.57;6.70;;;7.10;99.90;;;;;;5073440;28;20037;-68
2022/11/18 02:50:41;;;;;;;14.90;6.38;;;6.80;99.90;;;;;;5073714;28;20040;-67
2022/11/18 02:53:11;;;;;;;9.35;6.30;;;6.90;99.90;;;;;;5073694;28;20480;-67
2022/11/18 02:55:39;;;;;;;13.50;6.70;;;6.90;99.90;;;;;;5073715;28;20041;-67
2022/11/18 02:58:05;;;;;;;12.02;7.50;;;6.80;99.90;;;;;;5073652;28;20423;-68
2022/11/18 03:00:32;;;;;;;10.80;6.75;;;6.80;99.90;;;;;;5055407;28;20056;-67
2022/11/18 03:02:57;;;;;;;10.88;6.45;;;6.80;99.90;;;;;;5073520;28;20041;-68
2022/11/18 03:05:31;;;;;;;10.90;6.88;;;6.80;99.90;;;;;;5055266;28;20086;-67
2022/11/18 03:08:18;;;;;;;13.13;6.38;;;6.90;99.90;;;;;;5055567;28;20045;-67
2022/11/18 03:10:59;;;;;;;11.43;6.15;;;6.80;99.90;;;;;;5073475;28;20040;-68
2022/11/18 03:13:54;;;;;;;9.93;6.70;;;6.80;99.90;;;;;;5055569;28;20391;-67
2022/11/18 03:16:28;;;;;;;11.25;6.60;;;6.80;99.90;;;;;;4985355;28;20081;-68
2022/11/18 03:19:08;;;;;;;12.82;6.80;;;6.70;99.90;;;;;;5073385;28;20033;-67
2022/11/18 03:21:41;;;;;;;15.20;6.70;;;6.70;99.90;;;;;;5073191;28;20049;-67
2022/11/18 03:24:21;;;;;;;9.10;5.90;;;6.80;99.90;;;;;;5055941;28;20128;-67
2022/11/18 03:26:54;;;;;;;10.57;6.03;;;6.70;99.90;;;;;;5073007;28;20032;-67
2022/11/18 03:29:23;;;;;;;11.75;6.43;;;6.80;99.90;;;;;;5073150;28;20037;-67
2022/11/18 03:32:13;;;;;;;10.07;6.03;;;6.80;99.90;;;;;;5055349;28;20484;-67
2022/11/18 03:34:44;;;;;;;10.45;6.07;;;6.80;99.90;;;;;;5072991;28;20051;-68
2022/11/18 03:37:13;;;;;;;9.15;5.90;;;6.70;99.90;;;;;;5073335;28;20045;-68
2022/11/18 03:40:01;;;;;;;8.32;6.03;;;6.80;99.90;;;;;;5073352;28;20042;-68
2022/11/18 03:42:34;;;;;;;11.70;6.10;;;6.80;99.90;;;;;;5054385;28;20102;-68
2022/11/18 03:45:05;;;;;;;7.65;5.50;;;7.40;99.90;;;;;;5073315;28;20032;-67
2022/11/18 03:47:36;;;;;;;11.25;6.60;;;6.70;99.90;;;;;;5072947;28;20369;-68
2022/11/18 03:50:07;;;;;;;7.25;5.30;;;6.80;99.90;;;;;;5073201;28;20040;-68
2022/11/18 03:52:35;;;;;;;9.90;5.32;;;6.80;99.90;;;;;;5055216;28;20056;-67
2022/11/18 03:55:08;;;;;;;8.32;5.18;;;6.80;99.90;;;;;;5055081;28;20052;-68
2022/11/18 03:57:50;;;;;;;9.10;5.43;;;6.80;99.90;;;;;;5072790;28;20037;-67
2022/11/18 04:00:19;;;;;;;8.50;5.70;;;6.80;99.90;;;;;;5075187;28;20434;-68
2022/11/18 04:02:47;;;;;;;10.30;6.20;;;6.80;99.90;;;;;;5058625;28;20127;-67
2022/11/18 04:05:15;;;;;;;11.05;5.20;;;6.70;99.90;;;;;;5058754;28;20079;-68
2022/11/18 04:07:44;;;;;;;8.18;5.47;;;6.70;99.90;;;;;;5076507;28;20041;-68
2022/11/18 04:10:14;;;;;;;13.32;5.47;;;6.70;99.90;;;;;;5076846;28;20036;-68
2022/11/18 04:12:51;;;;;;;11.68;5.57;;;7.30;99.90;;;;;;5076777;28;20396;-67
2022/11/18 04:15:18;;;;;;;10.38;5.88;;;6.70;99.90;;;;;;5041897;28;20127;-68
2022/11/18 04:17:43;;;;;;;10.35;5.82;;;6.70;99.90;;;;;;5076207;28;20047;-68
2022/11/18 04:20:16;;;;;;;8.93;5.07;;;6.70;99.90;;;;;;5076431;28;20045;-67
2022/11/18 04:22:42;;;;;;;9.20;5.13;;;6.70;99.90;;;;;;5076008;28;20052;-68
2022/11/18 04:25:07;;;;;;;9.40;5.70;;;6.60;99.90;;;;;;5058640;28;20044;-68
2022/11/18 04:27:33;;;;;;;11.30;5.50;;;6.70;99.90;;;;;;5076460;28;20090;-69
2022/11/18 04:29:59;;;;;;;7.50;4.50;;;6.60;99.90;;;;;;5076441;28;20041;-68
2022/11/18 04:32:24;;;;;;;9.57;5.15;;;6.60;99.90;;;;;;5076382;28;20086;-67
2022/11/18 04:34:50;;;;;;;14.25;6.10;;;6.60;99.90;;;;;;5076348;28;20090;-68
2022/11/18 04:37:16;;;;;;;8.88;5.28;;;6.70;99.90;;;;;;5076300;28;20036;-67
2022/11/18 04:39:41;;;;;;;10.40;5.38;;;6.60;99.90;;;;;;5076322;28;20075;-67
2022/11/18 04:42:07;;;;;;;9.52;5.32;;;7.10;99.90;;;;;;5076071;28;20044;-68
2022/11/18 04:44:33;;;;;;;10.23;5.53;;;6.60;99.90;;;;;;5076161;28;20037;-65
2022/11/18 04:47:04;;;;;;;14.63;6.45;;;6.60;99.90;;;;;;5076125;28;20119;-65
2022/11/18 04:49:30;;;;;;;10.43;6.13;;;6.60;99.90;;;;;;5075795;28;20035;-66
2022/11/18 04:51:56;;;;;;;9.40;5.05;;;6.80;99.90;;;;;;5075731;28;20049;-66
2022/11/18 04:54:23;;;;;;;10.38;5.45;;;6.60;99.90;;;;;;5075989;28;20145;-65
2022/11/18 04:56:49;;;;;;;11.52;5.97;;;6.60;99.90;;;;;;5075919;28;20098;-66
2022/11/18 04:59:17;;;;;;;10.98;5.72;;;6.60;99.90;;;;;;5075850;28;20127;-66
2022/11/18 05:01:42;;;;;;;9.23;5.13;;;6.80;99.90;;;;;;5075814;28;20059;-65
2022/11/18 05:04:13;;;;;;;10.27;5.60;;;6.60;99.90;;;;;;5075427;28;20044;-66
2022/11/18 05:06:38;;;;;;;10.85;5.13;;;6.60;99.90;;;;;;5075762;28;20032;-65
2022/11/18 05:09:04;;;;;;;10.20;5.45;;;6.60;99.90;;;;;;5075673;28;20451;-65
2022/11/18 05:14:16;;;;;;;15.38;6.72;;;6.60;99.90;;;;;;5075579;28;20048;-65
2022/11/18 05:16:42;;;;;;;13.20;6.00;;;6.50;99.90;;;;;;5075556;28;20040;-65
2022/11/18 05:19:08;;;;;;;14.38;5.65;;;6.60;99.90;;;;;;5057659;28;20044;-65
2022/11/18 05:21:34;;;;;;;9.48;5.28;;;6.50;99.90;;;;;;5075104;28;20507;-65
2022/11/18 05:24:00;;;;;;;10.65;5.63;;;6.50;99.90;;;;;;5075366;28;20040;-65
2022/11/18 05:26:26;;;;;;;10.23;5.60;;;6.60;99.90;;;;;;5075399;28;20495;-65
2022/11/18 05:28:52;;;;;;;11.95;6.10;;;6.70;99.90;;;;;;5040502;28;20041;-66
2022/11/18 05:31:18;;;;;;;10.93;6.03;;;6.50;99.90;;;;;;5075039;28;20407;-66
2022/11/18 05:33:44;;;;;;;10.02;6.20;;;6.50;99.90;;;;;;5075299;28;20396;-65
2022/11/18 05:36:14;;;;;;;7.15;5.15;;;6.50;99.90;;;;;;5074880;28;20043;-66
2022/11/18 05:38:40;;;;;;;10.27;5.32;;;6.50;99.90;;;;;;5075077;28;20055;-66
2022/11/18 05:41:06;;;;;;;9.18;5.93;;;6.50;99.90;;;;;;5074788;28;20106;-66
2022/11/18 05:43:33;;;;;;;9.00;5.68;;;6.50;99.90;;;;;;5075056;28;20480;-66
2022/11/18 05:45:59;;;;;;;9.40;4.80;;;6.40;99.90;;;;;;5056994;28;20476;-66
2022/11/18 05:48:25;;;;;;;11.13;5.00;;;6.50;99.90;;;;;;5056863;28;20041;-65
2022/11/18 05:50:52;;;;;;;9.70;5.63;;;6.50;99.90;;;;;;5056841;28;20042;-65
2022/11/18 05:53:20;;;;;;;11.82;6.18;;;6.50;99.90;;;;;;5074658;28;20474;-65
2022/11/18 05:56:28;;;;;;;9.10;4.85;;;6.40;99.90;;;;;;5074833;28;20488;-65
2022/11/18 05:58:54;;;;;;;11.00;6.30;;;6.40;99.90;;;;;;4993069;28;20089;-65
2022/11/18 06:01:46;;;;;;;7.95;5.15;;;6.40;99.90;;;;;;4977158;28;20620;-65
2022/11/18 06:04:19;;;;;;;;;;;6.40;99.90;;;;;;5039368;28;20056;-65
2022/11/18 06:06:47;;;;;;;11.15;5.63;;;6.40;99.90;;;;;;5074572;28;19970;-65
2022/11/18 06:09:17;;;;;;;14.27;6.00;;;6.40;99.90;;;;;;5074531;28;20109;-65
2022/11/18 06:11:48;;;;;;;11.02;5.80;;;6.80;99.90;;;;;;5074239;28;20052;-65
2022/11/18 06:14:19;;;;;;;9.25;6.10;;;6.90;99.90;;;;;;5074191;28;20086;-65
2022/11/18 06:16:50;;;;;;;10.43;6.13;;;6.40;99.90;;;;;;5074393;28;20048;-65
2022/11/18 06:19:16;;;;;;;;;;;6.40;99.90;;;;;;5074896;28;20529;-65
2022/11/18 06:21:43;;;;;;;10.20;5.57;;;6.40;99.90;;;;;;5073737;28;19924;-65
2022/11/18 06:24:10;;;;;;;10.38;6.47;;;6.40;99.90;;;;;;5073964;28;20070;-65
2022/11/18 06:26:36;;;;;;;12.45;6.47;;;6.40;99.90;;;;;;5073902;28;20041;-65
2022/11/18 06:29:03;;;;;;;13.65;6.13;;;6.40;99.90;;;;;;5074131;28;20036;-65
2022/11/18 06:31:29;;;;;;;8.35;5.47;;;6.30;99.90;;;;;;5074004;28;20040;-65
2022/11/18 06:33:54;;;;;;;12.10;6.05;;;6.60;99.90;;;;;;5074024;28;20063;-66
2022/11/18 06:36:20;;;;;;;9.60;5.38;;;6.30;99.90;;;;;;5073646;28;20446;-65
2022/11/18 06:38:46;;;;;;;13.40;5.38;;;6.30;99.90;;;;;;5073959;28;20041;-65
2022/11/18 06:41:11;;;;;;;13.50;5.90;;;6.80;99.90;;;;;;5073954;28;20036;-65
2022/11/18 06:43:37;;;;;;;11.10;5.85;;;6.60;99.90;;;;;;5055631;28;20395;-65
2022/11/18 06:48:50;;;;;;;13.77;7.45;;;6.40;99.90;;;;;;5073534;28;20044;-65
2022/11/18 06:51:16;;;;;;;12.07;6.03;;;6.30;99.90;;;;;;5073771;28;20033;-65
2022/11/18 06:53:41;;;;;;;13.40;6.20;;;6.30;99.90;;;;;;5073760;28;20087;-65
2022/11/18 06:56:11;;;;;;;16.48;5.93;;;6.30;99.90;;;;;;5073573;28;20098;-65
2022/11/18 06:58:37;;;;;;;12.95;6.03;;;6.30;99.90;;;;;;5073322;28;20036;-65
2022/11/18 07:01:10;;;;;;;16.15;5.63;;;6.30;99.90;;;;;;5073186;28;20087;-64
2022/11/18 07:03:35;;;;;;;14.38;7.22;;;6.30;99.90;;;;;;5054352;28;20048;-63
2022/11/18 07:06:01;;;;;;;12.13;6.25;;;6.40;99.90;;;;;;5072645;28;20062;-62
2022/11/18 07:08:27;;;;;;;10.25;5.55;;;6.30;99.90;;;;;;5072493;28;20396;-64
2022/11/18 07:10:53;;;;;;;10.98;5.90;;;6.20;99.90;;;;;;5072568;28;20372;-65
2022/11/18 07:13:18;;;;;;;10.35;5.10;;;6.20;99.90;;;;;;5072674;28;20036;-63
2022/11/18 07:15:44;;;;;;;11.45;5.13;;;6.80;99.90;;;;;;5072504;28;20048;-64
2022/11/18 07:18:10;;;;;;;10.70;5.72;;;6.10;99.90;;;;;;5072549;28;20051;-64
2022/11/18 07:20:35;;;;;;;14.40;6.05;;;6.30;99.90;;;;;;5072488;28;20484;-65
2022/11/18 07:23:01;;;;;;;9.90;5.57;;;6.40;99.90;;;;;;5071771;28;20048;-66
2022/11/18 07:25:27;;;;;;;11.52;5.60;;;6.30;99.90;;;;;;5054177;28;20055;-65
2022/11/18 07:27:52;;;;;;;9.73;4.28;;;6.30;99.90;;;;;;5054238;28;20040;-65
2022/11/18 07:30:18;;;;;;;11.60;5.38;;;6.30;99.90;;;;;;5072412;28;20086;-65
2022/11/18 07:32:44;;;;;;;13.18;5.13;;;6.30;99.90;;;;;;5072299;28;20581;-65
2022/11/18 07:35:09;;;;;;;11.52;5.03;;;6.30;99.90;;;;;;5074400;28;20051;-65
2022/11/18 07:37:35;;;;;;;11.55;5.70;;;6.20;99.90;;;;;;5076069;28;20055;-68
2022/11/18 07:40:01;;;;;;;10.32;4.78;;;6.30;99.90;;;;;;5076179;28;20044;-65
2022/11/18 07:42:26;;;;;;;12.77;5.90;;;6.30;99.90;;;;;;5076343;28;20040;-64
2022/11/18 07:44:52;;;;;;;11.93;5.20;;;6.60;99.90;;;;;;5076218;28;20037;-65
2022/11/18 07:47:17;;;;;;;10.45;5.45;;;6.40;99.90;;;;;;5076262;28;20037;-66
2022/11/18 07:49:43;;;;;;;12.82;5.72;;;6.30;99.90;;;;;;5058145;28;20059;-66
2022/11/18 07:52:09;;;;;;;8.45;4.95;;;6.20;99.90;;;;;;5075850;28;20076;-65
2022/11/18 07:54:34;;;;;;;9.77;5.50;;;6.20;99.90;;;;;;5075783;28;20040;-65
2022/11/18 07:57:00;;;;;;;8.88;4.90;;;6.20;99.90;;;;;;5058111;28;20044;-65
2022/11/18 07:59:26;;;;;;;9.80;5.38;;;6.20;99.90;;;;;;5057819;28;20045;-67
2022/11/18 08:01:51;;;;;;;9.63;5.05;;;6.20;99.90;;;;;;5057736;28;20561;-66
2022/11/18 08:04:17;;;;;;;9.00;4.35;;;6.60;99.90;;;;;;5057934;28;20040;-65
2022/11/18 08:06:43;;;;;;;8.18;4.65;;;6.20;99.90;;;;;;5040888;28;20041;-66
2022/11/18 08:09:09;;;;;;;8.57;5.03;;;6.20;99.90;;;;;;5057726;28;20102;-65
2022/11/18 08:11:35;;;;;;;8.13;4.28;;;6.30;99.90;;;;;;5075783;28;20566;-65
2022/11/18 08:14:01;;;;;;;7.95;4.63;;;6.90;99.90;;;;;;5075696;28;20423;-66
2022/11/18 08:16:27;;;;;;;7.13;4.28;;;6.10;99.90;;;;;;5075625;28;20041;-65
2022/11/18 08:18:53;;;;;;;8.55;4.07;;;6.30;99.90;;;;;;5040698;28;20055;-65
2022/11/18 08:21:20;;;;;;;7.60;4.35;;;6.30;99.90;;;;;;5075107;28;20117;-65
2022/11/18 08:23:50;;;;;;;8.18;4.53;;;6.40;99.90;;;;;;5075349;28;20052;-65
2022/11/18 08:26:15;;;;;;;9.00;4.10;;;6.20;99.90;;;;;;5057597;28;20045;-66
2022/11/18 08:28:42;;;;;;;6.15;3.40;;;6.50;99.90;;;;;;5075176;28;20125;-66
2022/11/18 08:31:16;;;;;;;6.90;4.00;;;6.30;99.90;;;;;;5075132;28;20040;-65
2022/11/18 08:33:41;;;;;;;4.93;3.20;;;6.20;99.90;;;;;;5075121;28;20475;-66
2022/11/18 08:36:17;;;;;;;8.30;4.25;;;6.30;99.90;;;;;;5075091;28;20079;-64
2022/11/18 08:38:43;;;;;;;6.47;3.67;;;6.30;99.90;;;;;;5075216;28;20115;-65
2022/11/18 08:41:26;;;;;;;9.18;4.22;;;6.30;99.90;;;;;;5075291;28;20036;-65
2022/11/18 08:43:52;;;;;;;7.55;3.92;;;6.20;99.90;;;;;;5056777;28;20067;-66
2022/11/18 08:46:18;;;;;;;5.75;3.55;;;6.30;99.90;;;;;;5074803;28;20475;-65
2022/11/18 08:48:44;;;;;;;10.85;4.38;;;6.40;99.90;;;;;;5074715;28;20040;-66
2022/11/18 08:51:11;;;;;;;6.85;4.22;;;6.30;99.90;;;;;;5074988;28;20046;-65
2022/11/18 08:53:37;;;;;;;9.73;4.90;;;6.30;99.90;;;;;;5075010;28;20036;-66
2022/11/18 08:56:03;;;;;;;7.00;4.18;;;6.20;99.90;;;;;;5074546;28;20113;-66
2022/11/18 08:58:29;;;;;;;10.35;3.88;;;6.20;99.90;;;;;;5056846;28;20127;-66
2022/11/18 09:00:54;;;;;;;10.38;4.65;;;6.20;99.90;;;;;;5056640;28;20047;-66
2022/11/18 09:03:20;;;;;;;10.40;4.10;;;6.20;99.90;;;;;;5074722;28;20399;-66
2022/11/18 09:05:46;;;;;;;12.15;4.63;;;6.20;99.90;;;;;;5074415;28;20076;-66
2022/11/18 09:08:12;;;;;;;7.53;4.28;;;6.40;99.90;;;;;;5074448;28;20315;-65
2022/11/18 09:10:38;;;;;;;10.23;4.40;;;6.20;99.90;;;;;;5074413;28;20040;-65
2022/11/18 09:13:04;;;;;;;7.60;4.18;;;6.20;99.90;;;;;;5056595;28;20131;-66
2022/11/18 09:15:30;;;;;;;7.25;4.60;;;6.20;99.90;;;;;;5056567;28;20243;-66
2022/11/18 09:17:56;;;;;;;9.45;4.25;;;6.20;99.90;;;;;;5074681;28;20068;-65
2022/11/18 09:20:22;;;;;;;7.78;4.50;;;6.20;99.90;;;;;;5074290;28;20040;-65
2022/11/18 09:22:48;;;;;;;11.43;5.55;;;6.20;99.90;;;;;;5073870;28;20049;-64
2022/11/18 09:25:14;;;;;;;10.80;5.53;;;6.40;99.90;;;;;;5074280;28;20032;-66
2022/11/18 09:27:40;;;;;;;9.65;4.30;;;6.20;99.90;;;;;;5056401;28;20047;-66
2022/11/18 09:30:06;;;;;;;8.13;4.18;;;6.20;99.90;;;;;;5039516;28;20036;-66
2022/11/18 09:32:33;;;;;;;13.02;5.72;;;6.20;99.90;;;;;;5074198;28;20040;-66
2022/11/18 09:34:58;;;;;;;13.05;5.00;;;6.10;99.90;;;;;;5074319;28;20044;-65
2022/11/18 09:37:24;;;;;;;10.82;4.75;;;6.50;99.90;;;;;;5056128;28;20044;-64
2022/11/18 09:39:50;;;;;;;8.70;4.85;;;6.10;99.90;;;;;;5074262;28;20054;-64
2022/11/18 09:42:24;;;;;;;8.18;4.47;;;6.00;99.90;;;;;;5056177;28;20111;-65
2022/11/18 09:45:27;;;;;;;12.43;4.47;;;6.10;99.90;;;;;;5074177;28;20037;-65
2022/11/18 09:47:57;;;;;;;9.45;4.65;;;6.00;99.90;;;;;;5074103;28;20423;-64
2022/11/18 09:50:23;;;;;;;9.93;4.70;;;6.00;99.90;;;;;;5073789;28;20052;-64
2022/11/18 09:53:00;;;;;;;8.25;4.43;;;5.80;99.90;;;;;;5056127;28;20039;-64
2022/11/18 09:55:28;;;;;;;9.27;5.13;;;6.00;99.90;;;;;;5073927;28;20036;-64
2022/11/18 09:57:56;;;;;;;11.13;5.05;;;6.50;99.90;;;;;;5073181;28;20052;-64
2022/11/18 10:00:25;;;;;;;9.93;5.55;;;6.00;99.90;;;;;;5073897;28;20084;-64
2022/11/18 10:03:08;;;;;;;13.30;5.38;;;6.00;99.90;;;;;;5073485;28;20048;-65
2022/11/18 10:06:02;;;;;;;9.90;5.30;;;6.00;99.90;;;;;;5073514;28;20502;-64
2022/11/18 10:08:40;;;;;;;13.77;5.43;;;6.00;99.90;;;;;;5073323;28;20047;-64
2022/11/18 10:11:13;;;;;;;10.10;5.65;;;6.00;99.90;;;;;;5073602;28;20036;-67
2022/11/18 10:14:11;;;;;;;14.63;5.93;;;5.90;99.90;;;;;;5073557;28;20041;-64
2022/11/18 10:16:41;;;;;;;7.82;4.18;;;6.10;99.90;;;;;;5073243;28;20036;-65
2022/11/18 10:19:25;;;;;;;8.65;5.10;;;6.10;99.90;;;;;;5073139;28;20503;-65
2022/11/18 10:22:23;;;;;;;9.85;5.13;;;6.00;99.90;;;;;;5072902;28;20044;-64
2022/11/18 10:24:55;;;;;;;10.77;4.30;;;6.10;99.90;;;;;;5028701;28;20052;-64
2022/11/18 10:27:38;;;;;;;13.93;6.03;;;6.10;99.90;;;;;;5073316;28;20479;-64
2022/11/18 10:30:14;;;;;;;8.93;4.65;;;6.10;99.90;;;;;;5055103;28;20132;-61
2022/11/18 10:33:21;;;;;;;9.40;4.97;;;6.10;99.90;;;;;;5073207;28;20044;-66
2022/11/18 10:35:47;;;;;;;14.32;4.75;;;6.20;99.90;;;;;;5033325;28;20055;-64
2022/11/18 10:38:13;;;;;;;8.30;4.90;;;6.10;99.90;;;;;;5072758;28;20123;-64
2022/11/18 10:40:58;;;;;;;12.90;5.35;;;6.10;99.90;;;;;;5073049;28;20083;-64
2022/11/18 10:43:43;;;;;;;12.10;4.93;;;6.10;99.90;;;;;;5054647;28;20037;-64
2022/11/18 10:46:17;;;;;;;6.80;4.10;;;6.10;99.90;;;;;;5072946;28;20044;-64
2022/11/18 10:48:43;;;;;;;8.02;3.97;;;6.10;99.90;;;;;;5054691;28;20107;-64
2022/11/18 10:51:23;;;;;;;9.50;4.55;;;6.50;99.90;;;;;;5072905;28;20032;-64
2022/11/18 10:53:49;;;;;;;10.30;5.00;;;6.20;99.90;;;;;;5054693;28;20062;-63
2022/11/18 10:56:15;;;;;;;8.77;4.10;;;6.00;99.90;;;;;;5055026;28;20124;-64
2022/11/18 10:58:45;;;;;;;8.18;4.88;;;6.00;99.90;;;;;;5037865;28;20051;-64
2022/11/18 11:01:23;;;;;;;9.57;4.43;;;6.00;99.90;;;;;;5072460;28;20048;-64
2022/11/18 11:04:04;;;;;;;12.02;5.20;;;6.00;99.90;;;;;;5054454;28;20115;-65
2022/11/18 11:06:37;;;;;;;11.82;5.38;;;5.90;99.90;;;;;;5054444;28;20562;-64
2022/11/18 11:09:14;;;;;;;8.27;5.28;;;6.60;99.90;;;;;;5054487;28;20041;-64
2022/11/18 11:12:10;;;;;;;13.63;5.53;;;5.80;99.90;;;;;;5072655;28;20531;-66
2022/11/18 11:14:53;;;;;;;9.27;5.57;;;5.80;99.90;;;;;;5072225;28;20044;-68
2022/11/18 11:17:33;;;;;;;11.20;6.03;;;5.80;99.90;;;;;;5072627;28;20514;-71
2022/11/18 11:20:11;;;;;;;13.82;5.50;;;5.80;99.90;;;;;;5037763;28;20045;-68
2022/11/18 11:22:36;;;;;;;13.65;5.72;;;5.80;99.90;;;;;;5054064;28;20103;-66
2022/11/18 11:25:11;;;;;;;10.55;6.00;;;5.80;99.90;;;;;;5054177;28;20222;-67
2022/11/18 11:27:48;;;;;;;11.70;5.65;;;5.80;99.90;;;;;;5072515;28;20440;-64
2022/11/18 11:30:19;;;;;;;10.45;5.18;;;6.20;99.90;;;;;;5072445;28;20112;-66
2022/11/18 11:33:04;;;;;;;;;;;5.70;99.90;;;;;;5054859;28;20503;-64
2022/11/18 11:35:33;;;;;;;9.70;5.10;;;5.60;99.90;;;;;;5037561;28;19916;-66
2022/11/18 11:38:24;;;;;;;17.15;5.00;;;5.60;99.90;;;;;;5054123;28;20044;-64
2022/11/18 11:41:11;;;;;;;10.82;5.57;;;5.60;99.90;;;;;;5061606;28;20091;-67
2022/11/18 11:44:14;;;;;;;9.82;4.38;;;5.40;99.90;;;;;;5054208;28;20396;-64
2022/11/18 11:46:43;;;;;;;11.10;5.63;;;5.50;99.90;;;;;;5072268;28;20060;-68
2022/11/18 11:49:28;;;;;;;9.43;4.78;;;5.50;99.90;;;;;;5072025;28;20051;-64
2022/11/18 11:52:00;;;;;;;9.57;4.88;;;5.50;99.90;;;;;;5072221;28;20090;-64
2022/11/18 11:54:42;;;;;;;9.95;4.95;;;5.50;99.90;;;;;;5072220;28;20050;-67
2022/11/18 11:57:27;;;;;;;11.93;5.40;;;5.60;99.90;;;;;;5071941;28;20044;-67
2022/11/18 12:00:03;;;;;;;11.65;5.10;;;5.50;99.90;;;;;;5072135;28;20036;-64
2022/11/18 12:02:57;;;;;;;9.48;5.03;;;5.40;99.90;;;;;;5071753;28;20072;-64
2022/11/18 12:05:38;;;;;;;9.25;5.22;;;5.40;99.90;;;;;;5071792;28;20040;-64
2022/11/18 12:08:24;;;;;;;10.63;5.28;;;5.40;99.90;;;;;;5072051;28;20119;-64
2022/11/18 12:11:16;;;;;;;9.48;5.57;;;5.40;99.90;;;;;;5072076;28;20488;-64
2022/11/18 12:14:03;;;;;;;11.63;5.40;;;5.30;99.90;;;;;;5071666;28;20036;-64
2022/11/18 12:16:44;;;;;;;8.80;4.88;;;5.30;99.90;;;;;;5071947;28;20040;-64
2022/11/18 12:19:13;;;;;;;10.80;4.87;;;5.30;99.90;;;;;;5072072;28;20632;-64
2022/11/18 12:21:45;;;;;;;8.50;4.60;;;5.30;99.90;;;;;;5074317;28;20519;-64
2022/11/18 12:24:33;;;;;;;13.55;5.25;;;5.30;99.90;;;;;;5057432;28;20083;-64
2022/11/18 12:27:22;;;;;;;11.45;4.70;;;5.30;99.90;;;;;;5075656;28;20070;-64
2022/11/18 12:29:47;;;;;;;10.07;5.05;;;5.30;99.90;;;;;;5057334;28;20036;-64
2022/11/18 12:32:44;;;;;;;8.60;4.63;;;5.20;99.90;;;;;;5075187;28;20047;-64
2022/11/18 12:35:12;;;;;;;8.15;4.68;;;5.20;99.90;;;;;;5075510;28;20071;-64
2022/11/18 12:37:45;;;;;;;12.57;4.70;;;5.20;99.90;;;;;;5075474;28;20044;-64
2022/11/18 12:40:36;;;;;;;13.52;5.45;;;5.20;99.90;;;;;;5075431;28;20345;-64
2022/11/18 12:45:53;;;;;;;20.95;6.25;;;5.20;99.90;;;;;;5074988;28;20045;-64
2022/11/18 12:48:22;;;;;;;9.50;4.65;;;5.20;99.90;;;;;;5057080;28;20068;-64
2022/11/18 12:50:53;;;;;;;11.10;4.93;;;5.10;99.90;;;;;;5075057;28;20098;-63
2022/11/18 12:53:38;;;;;;;11.43;5.90;;;5.10;99.90;;;;;;5075213;28;20041;-63
2022/11/18 12:56:16;;;;;;;10.63;4.90;;;5.60;99.90;;;;;;5075062;28;20507;-64
2022/11/18 12:59:01;;;;;;;10.55;5.35;;;5.10;99.90;;;;;;5075048;28;20071;-64
2022/11/18 13:01:30;;;;;;;15.05;5.78;;;5.10;99.90;;;;;;5074967;28;20040;-64
2022/11/18 13:04:28;;;;;;;10.05;4.95;;;5.40;99.90;;;;;;5056697;28;20507;-64
2022/11/18 13:06:55;;;;;;;13.52;5.28;;;5.10;99.90;;;;;;5030162;28;20203;-64
2022/11/18 13:09:24;;;;;;;11.65;4.63;;;5.80;99.90;;;;;;5074952;28;20086;-64
2022/11/18 13:12:15;;;;;;;8.07;4.20;;;5.10;99.90;;;;;;5074889;28;20432;-64
2022/11/18 13:20:34;;;;;;;11.13;5.18;;;5.10;99.90;;;;;;5074322;28;20048;-64
2022/11/18 13:26:06;;;;;;;13.32;5.75;;;5.10;99.90;;;;;;5074087;28;20041;-64
2022/11/18 13:28:44;;;;;;;10.38;5.20;;;5.00;99.90;;;;;;5074276;28;20039;-64
2022/11/18 13:31:41;;;;;;;9.75;5.45;;;5.10;99.90;;;;;;5039363;28;20048;-64
2022/11/18 13:34:27;;;;;;;11.23;5.40;;;5.00;99.90;;;;;;5073703;28;20040;-63
2022/11/18 13:36:55;;;;;;;13.88;6.45;;;5.20;99.90;;;;;;5074211;28;20047;-64